Pagrindinis puslapis
METAR-TAF:

METAR-TAF

Oro uostai :

Neapolis, Italija

platuma: 40-51N, ilguma: 014-18E, Aukštis: 88 m

Dabartinis oras

Ataskaita buvo paskelbta 26 minutes, ne 19:20 UTC
Vėjas 4 kt nuo kintamojo kryptimis
Temperatūra 10°C
Drėgmė 87%
Slėgis 1020 hPa
Matomumas 10 km arba daugiau
Išsisklaidę debesys ne aukštis 3000 ft

METAR: LIRN 181920Z VRB04KT 9999 SCT030 10/08 Q1020 NOSIG

Laikas: 20:46 (19:46 UTC)

Prognozė

Ataskaita buvo paskelbta 2 valandos ir 46 minutes, ne 17:00 UTC
Prognozė galioja nuo 18 metu 18 UTC su 19 metu 18 UTC
Vėjas 4 kt nuo kintamojo kryptimis
Matomumas 10 km arba daugiau
Mažai debesys ne aukštis 2500 ft
Tapsmas
nuo 19 metu 08 UTC su 19 metu 10 UTC
Vėjas 12 kt iš Šiaurės Rytų

TAF: LIRN 181700Z 1818/1918 VRB04KT 9999 FEW025 BECMG 1908/1910 05012KT

Orai ataskaitas ir orų prognozės (METAR, TAF).

turimą stotys yra geltonos ir raudonos taškus žemėlapyje.

Perkelti pele per norėdami pamatyti stoties vardą.

Tada spustelėkite, norėdami matyti oro stebėjimo ir prognozės.

Norėdami pakeisti žemėlapį: spustelėkite ant žalios mygtukų su juodo kryžiaus žemyn,; žalią mygtuką su brūkšneliu, jei norite nutolinti; arba žalių rodyklių gretimoms žemėlapius.


METAR-TAF: